SYLD weather

Linden Airport
Linden, Upper Demerara-Berbice, Guyana

Public forecast

Using degrees Celsius for public forecast. Weather courtesy of forecast.io.

METAR (pilot weather report)

Closest report is Cheddi Jagan International Airport, 32.0 nm (59.3 km) N. Retrieved 2019/04/23 01:00 UTC (36 minutes ago):

SYCJ 230100Z 05004KT CAVOK 25/23 Q1011 NOSIG

TAF (pilot weather forecast)

Forecast is more than 12 hours old.

Closest forecast is Cheddi Jagan International Airport, 32.0 nm (59.3 km) N. Retrieved 2019/04/22 00:28 UTC (1 day ago):

TAF SYCJ 222324Z 2300/2324 03004KT 9999 FEW018 BECMG 2305/2307 VRB02KT SCT016 SCT038 BECMG 2311/2313 07012KT BKN020 SCT045 TEMPO 2315/2319 5000 SHRA BKN018